Time;durP1;ratioP1;P1;durP2;ratioP2;P2;SDS_P1;SDS_P2;PMS_P1;PMS_P2;Temp;Humidity;BMP_temperature;BMP_pressure;BME280_temperature;BME280_humidity;BME280_pressure;Samples;Min_cycle;Max_cycle;Signal;HPM_P1;HPM_P2
2021/08/27 00:00:43;;;;;;;4.40;2.60;;;;;;;;;;5092570;28;20519;-73
2021/08/27 00:03:10;;;;;;;3.33;2.30;;;;;;;;;;5092462;28;20447;-73
2021/08/27 00:05:39;;;;;;;7.00;3.37;;;;;;;;;;5091899;28;21139;-72
2021/08/27 00:08:07;;;;;;;6.00;4.00;;;;;;;;;;5095727;28;20472;-75
2021/08/27 00:10:34;;;;;;;5.40;3.60;;;;;;;;;;5100470;28;20523;-75
2021/08/27 00:13:01;;;;;;;3.40;3.10;;;;;;;;;;5111217;28;20447;-72
2021/08/27 00:15:29;;;;;;;4.33;3.93;;;;;;;;;;5104368;28;20446;-74
2021/08/27 00:17:56;;;;;;;3.80;2.93;;;;;;;;;;5112500;28;20446;-77
2021/08/27 00:20:23;;;;;;;5.57;3.27;;;;;;;;;;5108645;28;20535;-77
2021/08/27 00:22:51;;;;;;;4.90;3.07;;;;;;;;;;5091907;28;20972;-77
2021/08/27 00:25:19;;;;;;;3.73;2.87;;;;;;;;;;5105232;28;20784;-76
2021/08/27 00:27:46;;;;;;;4.30;2.27;;;;;;;;;;5105720;28;20477;-76
2021/08/27 00:30:14;;;;;;;3.67;2.63;;;;;;;;;;5107466;28;20448;-76
2021/08/27 00:32:41;;;;;;;4.50;3.17;;;;;;;;;;5097499;28;21291;-77
2021/08/27 00:35:09;;;;;;;5.30;2.93;;;;;;;;;;5097322;28;20479;-77
2021/08/27 00:37:36;;;;;;;5.97;2.93;;;;;;;;;;5108104;28;20454;-75
2021/08/27 00:40:05;;;;;;;5.07;3.27;;;;;;;;;;5100254;28;20443;-75
2021/08/27 00:42:32;;;;;;;3.00;2.27;;;;;;;;;;5106135;28;20478;-77
2021/08/27 00:44:59;;;;;;;3.53;2.60;;;;;;;;;;5111459;28;20452;-77
2021/08/27 00:47:27;;;;;;;5.17;2.60;;;;;;;;;;5106791;28;20472;-76
2021/08/27 00:49:54;;;;;;;8.90;2.93;;;;;;;;;;5091751;28;20539;-75
2021/08/27 00:52:21;;;;;;;4.77;3.03;;;;;;;;;;5094187;28;20451;-76
2021/08/27 00:54:50;;;;;;;4.80;2.83;;;;;;;;;;5111518;28;20523;-77
2021/08/27 00:57:19;;;;;;;6.63;2.80;;;;;;;;;;5111105;28;21050;-77
2021/08/27 00:59:46;;;;;;;3.10;2.77;;;;;;;;;;5111640;28;20439;-77
2021/08/27 01:02:13;;;;;;;4.73;3.07;;;;;;;;;;5104259;28;20536;-77
2021/08/27 01:04:41;;;;;;;3.90;2.63;;;;;;;;;;5091878;28;20954;-76
2021/08/27 01:07:10;;;;;;;4.10;2.27;;;;;;;;;;5107596;28;20476;-76
2021/08/27 01:09:40;;;;;;;4.10;2.87;;;;;;;;;;5109150;28;20451;-77
2021/08/27 01:12:09;;;;;;;4.77;3.33;;;;;;;;;;5110812;28;20444;-77
2021/08/27 01:14:40;;;;;;;3.73;2.57;;;;;;;;;;5091371;28;20915;-77
2021/08/27 01:17:13;;;;;;;2.50;2.17;;;;;;;;;;5091189;28;20444;-76
2021/08/27 01:19:58;;;;;;;3.70;2.60;;;;;;;;;;5090273;28;20446;-75
2021/08/27 01:22:36;;;;;;;5.87;2.77;;;;;;;;;;5105731;28;20440;-75
2021/08/27 01:25:03;;;;;;;2.87;2.57;;;;;;;;;;5110955;28;20518;-77
2021/08/27 01:27:31;;;;;;;5.17;2.77;;;;;;;;;;5110103;28;20550;-77
2021/08/27 01:30:03;;;;;;;5.07;2.93;;;;;;;;;;5110889;28;20440;-76
2021/08/27 01:32:32;;;;;;;3.40;2.17;;;;;;;;;;5105017;28;20442;-77
2021/08/27 01:35:01;;;;;;;2.57;2.10;;;;;;;;;;5093469;28;20522;-76
2021/08/27 01:37:29;;;;;;;3.70;2.63;;;;;;;;;;5110334;28;20458;-77
2021/08/27 01:39:57;;;;;;;6.10;2.60;;;;;;;;;;5090995;28;20536;-77
2021/08/27 01:42:25;;;;;;;4.73;2.70;;;;;;;;;;5090118;28;20533;-76
2021/08/27 01:44:55;;;;;;;4.47;3.27;;;;;;;;;;5102955;28;20871;-78
2021/08/27 01:47:23;;;;;;;4.13;2.83;;;;;;;;;;5089989;28;20984;-76
2021/08/27 01:49:51;;;;;;;2.40;2.20;;;;;;;;;;5102320;28;21039;-77
2021/08/27 01:52:21;;;;;;;4.20;2.40;;;;;;;;;;5110473;28;20970;-74
2021/08/27 01:54:48;;;;;;;3.17;2.70;;;;;;;;;;5092314;28;20445;-76
2021/08/27 01:57:15;;;;;;;5.13;3.03;;;;;;;;;;5091575;28;20540;-75
2021/08/27 01:59:44;;;;;;;6.03;2.73;;;;;;;;;;5094069;28;20450;-75
2021/08/27 02:02:13;;;;;;;6.70;3.17;;;;;;;;;;5110971;28;20475;-77
2021/08/27 02:04:41;;;;;;;7.83;2.87;;;;;;;;;;5098252;28;20440;-76
2021/08/27 02:07:09;;;;;;;4.57;2.87;;;;;;;;;;5111017;28;20440;-75
2021/08/27 02:09:38;;;;;;;4.83;3.10;;;16.70;99.90;;;;;;5110588;28;20443;-76
2021/08/27 02:12:07;;;;;;;3.10;2.53;;;14.50;99.90;;;;;;5111120;28;20550;-78
2021/08/27 02:14:35;;;;;;;4.30;2.80;;;14.60;99.90;;;;;;5106532;28;20543;-78
2021/08/27 02:17:05;;;;;;;4.77;2.60;;;14.60;99.90;;;;;;5110456;28;20444;-77
2021/08/27 02:19:32;;;;;;;3.57;2.77;;;14.60;99.90;;;;;;5105219;28;20443;-77
2021/08/27 02:22:00;;;;;;;3.53;2.97;;;14.50;99.90;;;;;;5091268;28;20531;-76
2021/08/27 02:24:32;;;;;;;4.70;2.63;;;14.50;99.90;;;;;;5101882;28;20450;-73
2021/08/27 02:27:03;;;;;;;2.83;2.50;;;14.60;99.90;;;;;;5102129;28;20450;-77
2021/08/27 02:29:32;;;;;;;4.23;3.00;;;14.60;99.90;;;;;;5107405;28;20527;-78
2021/08/27 02:32:03;;;;;;;6.13;3.13;;;14.60;99.90;;;;;;5094067;28;20452;-76
2021/08/27 02:34:32;;;;;;;4.63;3.03;;;14.70;99.90;;;;;;5098852;28;20454;-76
2021/08/27 02:37:00;;;;;;;8.93;3.00;;;14.80;99.90;;;;;;5114182;28;20525;-77
2021/08/27 02:39:29;;;;;;;4.13;3.63;;;;;;;;;;5113690;28;20442;-77
2021/08/27 02:41:56;;;;;;;4.00;2.47;;;;;;;;;;5107922;28;20520;-78
2021/08/27 02:44:26;;;;;;;4.63;3.20;;;;;;;;;;5104562;28;20435;-76
2021/08/27 02:46:53;;;;;;;4.27;2.70;;;;;;;;;;5114571;28;20818;-77
2021/08/27 02:49:21;;;;;;;5.80;3.90;;;;;;;;;;5105980;28;20476;-77
2021/08/27 02:51:53;;;;;;;5.00;2.90;;;;;;;;;;5096153;28;20543;-78
2021/08/27 02:54:22;;;;;;;5.70;2.80;;;;;;;;;;5103263;28;20462;-76
2021/08/27 02:56:51;;;;;;;4.80;3.30;;;;;;;;;;5098055;28;20450;-77
2021/08/27 02:59:19;;;;;;;4.90;3.50;;;;;;;;;;5093442;28;20450;-69
2021/08/27 03:01:51;;;;;;;5.20;3.07;;;;;;;;;;5094788;28;20812;-76
2021/08/27 03:04:22;;;;;;;6.00;2.80;;;;;;;;;;5102713;28;20487;-69
2021/08/27 03:06:51;;;;;;;4.57;3.27;;;;;;;;;;5114694;28;20446;-77
2021/08/27 03:09:19;;;;;;;3.70;3.10;;;14.90;99.90;;;;;;5114163;28;20551;-71
2021/08/27 03:11:52;;;;;;;6.00;3.57;;;15.20;1.00;;;;;;5109952;28;20445;-79
2021/08/27 03:14:25;;;;;;;4.50;3.33;;;15.00;1.00;;;;;;5101794;28;20514;-77
2021/08/27 03:16:54;;;;;;;3.00;2.70;;;15.00;1.00;;;;;;5114232;28;20527;-77
2021/08/27 03:19:26;;;;;;;6.17;2.90;;;15.10;1.00;;;;;;5102219;28;20492;-78
2021/08/27 03:21:58;;;;;;;4.73;3.60;;;14.90;1.00;;;;;;5099562;28;20448;-77
2021/08/27 03:24:30;;;;;;;9.50;4.20;;;14.70;99.90;;;;;;5104213;28;20527;-78
2021/08/27 03:27:02;;;;;;;7.17;3.73;;;14.80;99.90;;;;;;5093285;28;20460;-72
2021/08/27 03:29:31;;;;;;;6.67;4.00;;;14.90;86.70;;;;;;5094968;28;20486;-78
2021/08/27 03:32:00;;;;;;;5.10;4.53;;;14.80;99.90;;;;;;5096318;28;20453;-76
2021/08/27 03:34:28;;;;;;;6.87;4.20;;;14.80;99.90;;;;;;5098299;28;20531;-76
2021/08/27 03:36:58;;;;;;;6.87;4.10;;;14.70;99.90;;;;;;5092689;28;20532;-76
2021/08/27 03:39:25;;;;;;;6.20;4.23;;;14.70;99.90;;;;;;5092538;28;20858;-78
2021/08/27 03:41:53;;;;;;;6.93;4.83;;;14.60;99.90;;;;;;5106137;28;20942;-78
2021/08/27 03:44:21;;;;;;;5.67;5.10;;;14.60;99.90;;;;;;5099045;28;20439;-78
2021/08/27 03:46:48;;;;;;;6.20;4.40;;;14.70;99.90;;;;;;5112720;28;20446;-77
2021/08/27 03:49:16;;;;;;;5.70;5.10;;;14.70;99.90;;;;;;5098115;28;20563;-77
2021/08/27 03:51:45;;;;;;;6.43;4.13;;;14.50;99.90;;;;;;5096570;28;20447;-77
2021/08/27 03:54:14;;;;;;;7.40;6.37;;;14.50;99.90;;;;;;5094543;28;20540;-76
2021/08/27 03:56:41;;;;;;;8.13;5.10;;;14.50;99.90;;;;;;5092121;28;20798;-77
2021/08/27 03:59:08;;;;;;;6.47;5.33;;;14.40;99.90;;;;;;5092486;28;20446;-78
2021/08/27 04:01:35;;;;;;;8.23;5.60;;;14.40;99.90;;;;;;5092223;28;20440;-77
2021/08/27 04:04:02;;;;;;;6.80;5.13;;;14.50;99.90;;;;;;5100498;28;20805;-76
2021/08/27 04:06:30;;;;;;;6.23;5.63;;;14.60;99.90;;;;;;5112519;28;20808;-77
2021/08/27 04:08:57;;;;;;;5.57;5.00;;;14.40;99.90;;;;;;5112696;28;20606;-71
2021/08/27 04:11:24;;;;;;;8.97;6.20;;;14.40;99.90;;;;;;5111816;28;20440;-77
2021/08/27 04:13:51;;;;;;;7.67;5.87;;;14.60;99.90;;;;;;5093901;28;20535;-78
2021/08/27 04:16:18;;;;;;;6.20;4.80;;;14.50;99.90;;;;;;5098146;28;20455;-72
2021/08/27 04:18:45;;;;;;;5.10;4.60;;;14.40;99.90;;;;;;5105856;28;20444;-76
2021/08/27 04:21:11;;;;;;;7.33;4.53;;;14.50;99.90;;;;;;5112564;28;20522;-77
2021/08/27 04:23:40;;;;;;;8.80;5.27;;;14.50;99.90;;;;;;5094310;28;20955;-77
2021/08/27 04:26:06;;;;;;;6.77;4.73;;;14.50;99.90;;;;;;5111144;28;20450;-78
2021/08/27 04:28:33;;;;;;;6.60;5.10;;;14.40;99.90;;;;;;5111822;28;20515;-78
2021/08/27 04:31:00;;;;;;;6.73;4.50;;;14.40;99.90;;;;;;5101508;28;20975;-78
2021/08/27 04:33:27;;;;;;;6.07;5.03;;;14.40;99.90;;;;;;5091781;28;20808;-77
2021/08/27 04:35:54;;;;;;;6.30;5.70;;;14.50;99.90;;;;;;5091952;28;20864;-77
2021/08/27 04:38:21;;;;;;;6.30;4.33;;;14.40;99.90;;;;;;5091702;28;20945;-78
2021/08/27 04:40:49;;;;;;;4.77;4.13;;;14.60;99.90;;;;;;5097631;28;20476;-77
2021/08/27 04:43:16;;;;;;;5.43;4.80;;;14.60;99.90;;;;;;5111784;28;20471;-76
2021/08/27 04:45:43;;;;;;;5.30;4.40;;;14.40;99.90;;;;;;5111441;28;20528;-77
2021/08/27 04:48:10;;;;;;;5.70;4.53;;;14.40;99.90;;;;;;5097685;28;20920;-78
2021/08/27 04:50:36;;;;;;;4.77;3.50;;;14.40;99.90;;;;;;5093991;28;20497;-76
2021/08/27 04:53:03;;;;;;;8.73;5.03;;;14.30;99.90;;;;;;5108166;28;20542;-76
2021/08/27 04:55:30;;;;;;;11.80;6.10;;;14.10;99.90;;;;;;5111587;28;20440;-76
2021/08/27 04:57:58;;;;;;;10.50;5.33;;;14.00;99.90;;;;;;5103043;28;21082;-77
2021/08/27 05:00:25;;;;;;;7.73;6.97;;;14.00;99.90;;;;;;5091758;28;20448;-77
2021/08/27 05:02:52;;;;;;;9.10;6.63;;;13.90;99.90;;;;;;5098148;28;20475;-76
2021/08/27 05:05:19;;;;;;;8.23;5.33;;;13.80;99.90;;;;;;5093934;28;20455;-78
2021/08/27 05:07:46;;;;;;;6.67;5.50;;;14.00;99.90;;;;;;5092720;28;20531;-77
2021/08/27 05:10:13;;;;;;;9.60;6.27;;;14.10;99.90;;;;;;5102410;28;20858;-75
2021/08/27 05:12:40;;;;;;;7.00;6.30;;;14.30;99.90;;;;;;5098901;28;20444;-80
2021/08/27 05:15:10;;;;;;;8.90;6.30;;;14.50;99.90;;;;;;5097534;28;20451;-76
2021/08/27 05:17:38;;;;;;;8.63;6.27;;;14.60;99.90;;;;;;5109781;28;20802;-73
2021/08/27 05:20:07;;;;;;;7.23;6.40;;;14.70;99.90;;;;;;5105773;28;20547;-74
2021/08/27 05:22:34;;;;;;;10.20;7.83;;;14.60;99.90;;;;;;5090861;28;20451;-75
2021/08/27 05:25:00;;;;;;;12.43;8.80;;;14.40;99.90;;;;;;5090752;28;20443;-76
2021/08/27 05:27:27;;;;;;;12.27;9.27;;;14.50;99.90;;;;;;5090767;28;20444;-75
2021/08/27 05:29:54;;;;;;;11.73;9.50;;;14.20;99.90;;;;;;5096002;27;20574;-75
2021/08/27 05:32:24;;;;;;;12.73;9.23;;;14.20;99.90;;;;;;5124912;27;20872;-73
2021/08/27 05:34:50;;;;;;;11.60;10.40;;;14.10;99.90;;;;;;5111113;28;20447;-76
2021/08/27 05:37:18;;;;;;;12.10;9.70;;;14.10;99.90;;;;;;5129222;27;20561;-72
2021/08/27 05:39:45;;;;;;;15.40;11.90;;;14.00;99.90;;;;;;5131883;27;20953;-77
2021/08/27 05:42:12;;;;;;;11.50;9.80;;;13.90;99.90;;;;;;5114289;27;20947;-77
2021/08/27 05:44:39;;;;;;;14.17;9.20;;;13.90;99.90;;;;;;5110579;28;20446;-78
2021/08/27 05:47:06;;;;;;;12.03;10.10;;;14.00;99.90;;;;;;5114393;28;20454;-75
2021/08/27 05:49:35;;;;;;;11.50;9.80;;;14.10;99.90;;;;;;5109688;28;20483;-77
2021/08/27 05:52:01;;;;;;;11.70;9.70;;;14.40;99.90;;;;;;5110240;28;20435;-77
2021/08/27 05:54:28;;;;;;;8.67;7.17;;;14.70;99.90;;;;;;5108580;28;20436;-72
2021/08/27 05:56:56;;;;;;;11.53;8.47;;;14.70;99.90;;;;;;5107454;28;20450;-73
2021/08/27 05:59:23;;;;;;;9.50;8.23;;;14.70;99.90;;;;;;5106899;27;20454;-73
2021/08/27 06:01:50;;;;;;;8.17;7.30;;;14.70;99.90;;;;;;5111488;28;20439;-73
2021/08/27 06:04:17;;;;;;;8.33;7.07;;;14.90;99.90;;;;;;5110977;28;20453;-72
2021/08/27 06:06:48;;;;;;;9.47;7.33;;;14.90;99.90;;;;;;5109344;28;20473;-73
2021/08/27 06:09:15;;;;;;;7.20;6.50;;;15.00;99.90;;;;;;5111392;28;20889;-73
2021/08/27 06:11:42;;;;;;;7.70;6.67;;;14.80;99.90;;;;;;5111815;28;20831;-74
2021/08/27 06:14:09;;;;;;;7.63;5.80;;;14.60;99.90;;;;;;5116061;27;20511;-74
2021/08/27 06:16:36;;;;;;;7.27;5.80;;;14.50;99.90;;;;;;5106301;28;20501;-74
2021/08/27 06:19:04;;;;;;;6.10;5.50;;;14.40;99.90;;;;;;5100430;28;20480;-74
2021/08/27 06:21:31;;;;;;;9.00;5.50;;;14.70;99.90;;;;;;5106733;28;20439;-74
2021/08/27 06:24:00;;;;;;;5.90;5.13;;;14.80;99.90;;;;;;5103151;28;20811;-74
2021/08/27 06:26:27;;;;;;;6.57;5.50;;;14.80;99.90;;;;;;5110167;28;20458;-75
2021/08/27 06:28:54;;;;;;;7.93;4.97;;;14.70;99.90;;;;;;5104794;27;20556;-74
2021/08/27 06:31:21;;;;;;;4.90;4.40;;;14.80;99.90;;;;;;5109925;28;20991;-73
2021/08/27 06:33:48;;;;;;;6.43;4.47;;;14.90;99.90;;;;;;5111788;28;20443;-74
2021/08/27 06:36:16;;;;;;;7.43;4.60;;;14.80;4.80;;;;;;5096185;28;20618;-73
2021/08/27 06:38:42;;;;;;;8.33;4.93;;;14.60;72.90;;;;;;5102614;27;20440;-74
2021/08/27 06:41:12;;;;;;;5.07;4.30;;;14.50;99.90;;;;;;5098668;28;20547;-73
2021/08/27 06:43:41;;;;;;;8.20;4.40;;;14.60;99.90;;;;;;5099941;28;20515;-74
2021/08/27 06:46:13;;;;;;;7.13;4.20;;;14.90;1.00;;;;;;5102823;28;20448;-74
2021/08/27 06:48:40;;;;;;;5.10;4.60;;;14.80;1.00;;;;;;5106307;28;20447;-74
2021/08/27 06:51:08;;;;;;;5.00;4.00;;;14.90;1.00;;;;;;5100858;28;20497;-73
2021/08/27 06:53:35;;;;;;;4.20;3.80;;;14.80;1.00;;;;;;5101064;28;20535;-74
2021/08/27 06:56:02;;;;;;;6.07;4.63;;;14.60;1.00;;;;;;5097652;28;20527;-73
2021/08/27 06:58:31;;;;;;;5.30;4.80;;;14.70;1.00;;;;;;5096071;28;20451;-73
2021/08/27 07:00:58;;;;;;;4.87;4.13;;;14.70;1.00;;;;;;5097883;28;20479;-72
2021/08/27 07:03:25;;;;;;;6.13;4.20;;;;;;;;;;5101638;28;20447;-74
2021/08/27 07:05:53;;;;;;;5.77;4.53;;;;;;;;;;5100302;27;20486;-74
2021/08/27 07:08:20;;;;;;;4.83;3.20;;;;;;;;;;5110426;28;20530;-78
2021/08/27 07:10:47;;;;;;;6.60;3.70;;;;;;;;;;5100696;28;20875;-74
2021/08/27 07:13:15;;;;;;;6.73;5.07;;;;;;;;;;5115157;27;20451;-77
2021/08/27 07:15:43;;;;;;;4.50;4.10;;;;;;;;;;5101219;28;20431;-77
2021/08/27 07:18:11;;;;;;;4.50;3.13;;;;;;;;;;5110239;28;20916;-76
2021/08/27 07:20:38;;;;;;;5.70;3.30;;;;;;;;;;5107442;28;20555;-75
2021/08/27 07:23:05;;;;;;;3.83;3.27;;;;;;;;;;5095496;28;20455;-75
2021/08/27 07:25:33;;;;;;;4.63;4.20;;;;;;;;;;5105422;28;20524;-76
2021/08/27 07:28:00;;;;;;;7.07;3.73;;;;;;;;;;5098151;28;20884;-76
2021/08/27 07:30:27;;;;;;;5.63;3.03;;;;;;;;;;5099599;28;20591;-76
2021/08/27 07:32:56;;;;;;;5.40;3.47;;;;;;;;;;5108271;28;20439;-77
2021/08/27 07:35:23;;;;;;;5.40;3.40;;;;;;;;;;5108795;28;20494;-76
2021/08/27 07:37:50;;;;;;;6.27;3.00;;;;;;;;;;5105766;28;20456;-76
2021/08/27 07:40:18;;;;;;;6.73;3.00;;;;;;;;;;5099664;28;20480;-76
2021/08/27 07:42:45;;;;;;;5.40;3.00;;;;;;;;;;5096731;28;20903;-76
2021/08/27 07:45:13;;;;;;;5.77;2.80;;;;;;;;;;5103820;28;20523;-76
2021/08/27 07:47:40;;;;;;;6.20;2.70;;;;;;;;;;5104185;28;20449;-77
2021/08/27 07:50:10;;;;;;;3.80;2.13;;;;;;;;;;5108657;28;20684;-75
2021/08/27 07:52:37;;;;;;;5.10;2.07;;;;;;;;;;5095689;28;20515;-75
2021/08/27 07:55:05;;;;;;;3.47;1.93;;;14.90;1.00;;;;;;5117888;27;20941;-76
2021/08/27 07:57:32;;;;;;;7.13;1.80;;;16.10;99.90;;;;;;5113407;27;20535;-75
2021/08/27 07:59:59;;;;;;;4.67;1.57;;;16.10;99.90;;;;;;5097717;28;20444;-75
2021/08/27 08:02:26;;;;;;;2.97;1.90;;;16.20;99.90;;;;;;5100167;28;20480;-76
2021/08/27 08:04:53;;;;;;;5.67;1.77;;;16.20;99.90;;;;;;5098152;28;20471;-75
2021/08/27 08:07:21;;;;;;;3.33;1.53;;;16.10;99.90;;;;;;5098360;28;20826;-76
2021/08/27 08:09:48;;;;;;;2.57;1.80;;;15.80;99.90;;;;;;5091597;28;20476;-76
2021/08/27 08:12:15;;;;;;;5.97;1.80;;;15.80;99.90;;;;;;5108627;28;20860;-76
2021/08/27 08:14:42;;;;;;;4.33;2.03;;;15.80;1.00;;;;;;5098620;28;20445;-76
2021/08/27 08:17:09;;;;;;;2.23;1.60;;;16.00;1.00;;;;;;5104836;28;20544;-75
2021/08/27 08:19:35;;;;;;;2.27;1.33;;;16.40;99.90;;;;;;5109070;28;20463;-75
2021/08/27 08:22:03;;;;;;;1.57;1.30;;;16.40;99.90;;;;;;5108382;28;20855;-76
2021/08/27 08:24:31;;;;;;;2.90;1.70;;;16.70;99.90;;;;;;5106145;28;21007;-74
2021/08/27 08:26:58;;;;;;;1.37;1.20;;;16.90;93.10;;;;;;5103214;28;20464;-75
2021/08/27 08:29:25;;;;;;;2.83;1.40;;;16.60;1.00;;;;;;5105623;28;21014;-75
2021/08/27 08:31:52;;;;;;;2.03;1.50;;;16.70;1.00;;;;;;5110097;28;20526;-77
2021/08/27 08:34:20;;;;;;;1.37;1.27;;;16.60;1.00;;;;;;5107835;28;20463;-76
2021/08/27 08:36:46;;;;;;;2.93;1.93;;;16.60;1.00;;;;;;5109704;28;20515;-74
2021/08/27 08:39:13;;;;;;;6.00;1.40;;;16.30;1.00;;;;;;5111573;28;20531;-76
2021/08/27 08:41:47;;;;;;;2.23;1.57;;;16.20;1.00;;;;;;5111430;28;20519;-74
2021/08/27 08:44:13;;;;;;;2.90;1.40;;;16.10;1.00;;;;;;5111909;28;20554;-75
2021/08/27 08:46:42;;;;;;;2.53;1.73;;;16.30;1.00;;;;;;5111337;28;20442;-75
2021/08/27 08:49:10;;;;;;;3.87;1.80;;;16.20;1.00;;;;;;5112029;28;20440;-73
2021/08/27 08:51:37;;;;;;;3.47;1.80;;;16.10;1.00;;;;;;5110824;28;20438;-72
2021/08/27 08:54:04;;;;;;;5.03;1.77;;;16.20;1.00;;;;;;5109916;27;21010;-71
2021/08/27 08:56:31;;;;;;;2.33;1.60;;;16.30;1.00;;;;;;5109953;28;20534;-71
2021/08/27 08:58:59;;;;;;;2.70;1.33;;;16.30;1.00;;;;;;5110083;28;20851;-73
2021/08/27 09:01:28;;;;;;;3.13;1.53;;;16.50;1.00;;;;;;5113846;27;20440;-79
2021/08/27 09:03:54;;;;;;;2.30;1.40;;;16.60;1.00;;;;;;5105690;28;20478;-76
2021/08/27 09:06:21;;;;;;;3.27;1.37;;;16.60;1.00;;;;;;5106387;28;20450;-76
2021/08/27 09:08:49;;;;;;;2.80;2.20;;;16.60;1.00;;;;;;5108844;28;20475;-76
2021/08/27 09:11:18;;;;;;;4.27;2.00;;;16.80;1.00;;;;;;5107430;28;20483;-75
2021/08/27 09:13:47;;;;;;;3.97;1.83;;;16.70;1.00;;;;;;5103129;28;21004;-76
2021/08/27 09:16:16;;;;;;;4.00;1.40;;;16.40;1.00;;;;;;5105858;28;20468;-76
2021/08/27 09:18:45;;;;;;;1.83;1.40;;;16.40;1.00;;;;;;5107300;28;20808;-76
2021/08/27 09:21:34;;;;;;;1.90;1.23;;;16.40;1.00;;;;;;5108897;28;20498;-76
2021/08/27 09:24:16;;;;;;;1.87;1.10;;;16.40;1.00;;;;;;5106412;28;20443;-75
2021/08/27 09:26:45;;;;;;;4.93;1.80;;;16.30;1.00;;;;;;5102724;28;20497;-78
2021/08/27 09:29:31;;;;;;;2.40;1.70;;;16.60;1.00;;;;;;5106664;27;20471;-77
2021/08/27 09:31:59;;;;;;;1.60;1.43;;;17.10;1.00;;;;;;5107087;28;20475;-72
2021/08/27 09:34:28;;;;;;;1.83;1.60;;;17.20;1.00;;;;;;5107538;28;20447;-77
2021/08/27 09:36:58;;;;;;;1.60;1.40;;;17.50;1.00;;;;;;5106821;28;20439;-77
2021/08/27 09:39:33;;;;;;;4.20;1.43;;;17.40;99.90;;;;;;5104261;28;20546;-76
2021/08/27 09:42:00;;;;;;;1.57;1.27;;;16.90;99.90;;;;;;5107287;28;20818;-78
2021/08/27 09:44:28;;;;;;;2.90;1.67;;;17.00;99.90;;;;;;5092697;28;20850;-78
2021/08/27 09:46:55;;;;;;;1.73;1.20;;;17.10;99.90;;;;;;5105121;28;20458;-73
2021/08/27 09:49:28;;;;;;;4.20;1.70;;;17.20;99.90;;;;;;5104832;28;20454;-77
2021/08/27 09:51:56;;;;;;;2.57;1.67;;;17.60;99.90;;;;;;5095739;28;20909;-76
2021/08/27 09:54:25;;;;;;;2.97;1.10;;;17.90;99.90;;;;;;5096720;28;20531;-77
2021/08/27 09:56:54;;;;;;;2.63;1.50;;;17.80;99.90;;;;;;5108180;28;21016;-77
2021/08/27 09:59:35;;;;;;;3.63;1.40;;;17.80;99.90;;;;;;5098320;28;20941;-76
2021/08/27 10:02:02;;;;;;;3.50;1.63;;;17.70;99.90;;;;;;5104558;28;20446;-76
2021/08/27 10:04:32;;;;;;;1.40;1.23;;;17.30;99.90;;;;;;5105328;28;20454;-77
2021/08/27 10:06:59;;;;;;;4.47;1.90;;;17.40;99.90;;;;;;5106070;28;20454;-75
2021/08/27 10:09:44;;;;;;;2.90;1.63;;;17.40;99.90;;;;;;5103063;28;20478;-77
2021/08/27 10:12:12;;;;;;;2.93;1.77;;;17.20;99.90;;;;;;5107745;28;20451;-78
2021/08/27 10:14:39;;;;;;;2.83;1.67;;;17.20;99.90;;;;;;5107220;28;20451;-76
2021/08/27 10:17:06;;;;;;;2.20;1.60;;;17.40;99.90;;;;;;5107821;28;20444;-74
2021/08/27 10:19:35;;;;;;;1.97;1.70;;;17.40;99.90;;;;;;5108924;28;20965;-74
2021/08/27 10:22:01;;;;;;;5.93;5.40;;;17.50;99.90;;;;;;5109190;28;20530;-76
2021/08/27 10:24:28;;;;;;;4.00;2.27;;;17.80;99.90;;;;;;5109295;28;20447;-74
2021/08/27 10:26:55;;;;;;;2.83;2.10;;;18.20;99.90;;;;;;5097911;28;20440;-76
2021/08/27 10:29:22;;;;;;;4.33;1.90;;;18.10;99.90;;;;;;5106037;28;20930;-77
2021/08/27 10:31:51;;;;;;;6.23;1.70;;;17.90;99.90;;;;;;5108712;28;20486;-75
2021/08/27 10:34:38;;;;;;;3.40;1.70;;;17.70;99.90;;;;;;5101980;28;20523;-74
2021/08/27 10:37:06;;;;;;;1.73;1.43;;;17.50;99.90;;;;;;5098792;28;20884;-75
2021/08/27 10:39:38;;;;;;;4.13;1.70;;;17.70;99.90;;;;;;5109197;28;20454;-75
2021/08/27 10:42:06;;;;;;;2.40;1.70;;;18.00;99.90;;;;;;5117004;28;20826;-75
2021/08/27 10:44:46;;;;;;;4.23;1.80;;;17.80;99.90;;;;;;5109849;28;20458;-74
2021/08/27 10:47:13;;;;;;;3.10;1.87;;;18.00;99.90;;;;;;5098487;28;20454;-76
2021/08/27 10:50:01;;;;;;;1.80;1.70;;;17.80;99.90;;;;;;5100547;28;20963;-75
2021/08/27 10:52:35;;;;;;;3.70;2.13;;;17.70;99.90;;;;;;5095809;27;20436;-75
2021/08/27 10:55:19;;;;;;;3.20;1.70;;;17.40;99.90;;;;;;5110282;28;20970;-76
2021/08/27 10:58:06;;;;;;;1.57;1.27;;;17.30;99.90;;;;;;5112207;28;20878;-74
2021/08/27 11:00:40;;;;;;;4.63;1.83;;;17.30;99.90;;;;;;5107286;27;20436;-75
2021/08/27 11:03:08;;;;;;;3.10;1.80;;;17.50;99.90;;;;;;5109280;28;20871;-74
2021/08/27 11:05:37;;;;;;;10.17;2.00;;;17.70;99.90;;;;;;5103190;28;20439;-78
2021/08/27 11:08:08;;;;;;;5.10;1.93;;;17.90;99.90;;;;;;5105470;28;20967;-76
2021/08/27 11:10:37;;;;;;;4.40;2.67;;;18.30;99.90;;;;;;5102674;28;20480;-78
2021/08/27 11:13:12;;;;;;;4.13;1.60;;;18.60;99.90;;;;;;5111657;28;20451;-76
2021/08/27 11:15:40;;;;;;;3.80;2.13;;;18.60;99.90;;;;;;5123824;27;20426;-78
2021/08/27 11:18:26;;;;;;;4.20;1.87;;;18.20;99.90;;;;;;5130984;27;20507;-79
2021/08/27 11:20:54;;;;;;;3.43;1.60;;;17.80;99.90;;;;;;5111535;28;20575;-75
2021/08/27 11:23:23;;;;;;;2.20;1.63;;;17.80;99.90;;;;;;5112851;28;20450;-72
2021/08/27 11:26:04;;;;;;;2.47;1.50;;;17.90;99.90;;;;;;5103812;28;20473;-73
2021/08/27 11:28:33;;;;;;;1.70;1.47;;;18.00;99.90;;;;;;5101818;28;20447;-72
2021/08/27 11:31:05;;;;;;;3.83;1.80;;;18.10;99.90;;;;;;5097712;27;20846;-72
2021/08/27 11:33:52;;;;;;;4.13;1.70;;;18.10;99.90;;;;;;5104787;28;20436;-72
2021/08/27 11:36:21;;;;;;;2.80;1.40;;;18.20;99.90;;;;;;5103108;28;20509;-72
2021/08/27 11:38:57;;;;;;;6.73;1.70;;;18.20;99.90;;;;;;5126469;27;20521;-73
2021/08/27 11:41:25;;;;;;;5.13;3.50;;;18.20;99.90;;;;;;5114513;27;20448;-72
2021/08/27 11:44:05;;;;;;;3.50;2.10;;;18.30;99.90;;;;;;5100036;27;20546;-73
2021/08/27 11:46:34;;;;;;;4.83;2.00;;;18.40;99.90;;;;;;5098252;28;20436;-72
2021/08/27 11:49:04;;;;;;;8.47;5.40;;;;;;;;;;5100708;28;20870;-78
2021/08/27 11:51:35;;;;;;;3.83;3.10;;;;;;;;;;5101180;27;20810;-75
2021/08/27 11:54:16;;;;;;;2.30;1.57;;;;;;;;;;5108834;28;20882;-78
2021/08/27 11:56:43;;;;;;;2.53;1.30;;;;;;;;;;5109182;28;20443;-76
2021/08/27 11:59:11;;;;;;;2.40;1.70;;;;;;;;;;5110829;28;20450;-75
2021/08/27 12:01:38;;;;;;;2.43;1.70;;;;;;;;;;5112608;27;20460;-74
2021/08/27 12:04:22;;;;;;;1.93;1.50;;;;;;;;;;5109437;28;20539;-76
2021/08/27 12:06:49;;;;;;;4.47;2.13;;;;;;;;;;5106655;28;20523;-75
2021/08/27 12:09:18;;;;;;;3.70;1.73;;;;;;;;;;5111313;28;20794;-76
2021/08/27 12:11:45;;;;;;;4.30;2.20;;;;;;;;;;5112928;27;20494;-77
2021/08/27 12:14:12;;;;;;;8.17;2.27;;;;;;;;;;5111175;27;20793;-76
2021/08/27 12:16:43;;;;;;;3.87;2.00;;;;;;;;;;5111513;28;20445;-75
2021/08/27 12:19:10;;;;;;;2.60;1.30;;;;;;;;;;5111679;28;20435;-77
2021/08/27 12:21:37;;;;;;;3.13;1.70;;;;;;;;;;5104171;28;20445;-76
2021/08/27 12:24:09;;;;;;;2.20;1.67;;;;;;;;;;5092206;28;20476;-76
2021/08/27 12:26:37;;;;;;;5.23;1.93;;;;;;;;;;5091642;28;20973;-78
2021/08/27 12:29:05;;;;;;;4.37;1.90;;;;;;;;;;5092104;28;20519;-77
2021/08/27 12:31:37;;;;;;;3.80;1.90;;;;;;;;;;5097985;28;20475;-78
2021/08/27 12:34:04;;;;;;;2.10;1.63;;;;;;;;;;5095279;28;20459;-78
2021/08/27 12:36:35;;;;;;;9.57;2.23;;;;;;;;;;5091934;28;20931;-78
2021/08/27 12:39:02;;;;;;;4.20;1.90;;;;;;;;;;5092005;28;20439;-77
2021/08/27 12:41:30;;;;;;;2.00;1.80;;;;;;;;;;5097267;28;20526;-76
2021/08/27 12:44:09;;;;;;;4.20;1.90;;;;;;;;;;5096157;28;21061;-76
2021/08/27 12:46:36;;;;;;;1.70;1.30;;;;;;;;;;5100175;28;20440;-78
2021/08/27 12:49:13;;;;;;;2.93;1.63;;;;;;;;;;5106456;28;20520;-77
2021/08/27 12:51:41;;;;;;;2.03;1.33;;;;;;;;;;5098309;28;20467;-76
2021/08/27 12:54:08;;;;;;;4.37;1.93;;;;;;;;;;5111569;27;20444;-76
2021/08/27 12:56:36;;;;;;;2.53;1.60;;;;;;;;;;5107522;28;20450;-77
2021/08/27 12:59:16;;;;;;;2.70;1.37;;;;;;;;;;5100951;28;20885;-76
2021/08/27 13:01:44;;;;;;;2.30;1.47;;;;;;;;;;5091212;28;20788;-77
2021/08/27 13:04:11;;;;;;;2.17;1.40;;;19.00;99.90;;;;;;5091448;28;20479;-77
2021/08/27 13:06:39;;;;;;;1.90;1.10;;;19.60;99.90;;;;;;5091077;28;20432;-73
2021/08/27 13:09:08;;;;;;;3.43;1.53;;;19.20;99.90;;;;;;5102358;28;20518;-76
2021/08/27 13:11:48;;;;;;;5.17;2.07;;;19.30;99.90;;;;;;5100138;28;20532;-75
2021/08/27 13:14:19;;;;;;;2.30;1.63;;;19.50;99.90;;;;;;5096757;28;20440;-76
2021/08/27 13:16:54;;;;;;;2.60;2.40;;;19.90;99.90;;;;;;5111255;28;20456;-77
2021/08/27 13:19:21;;;;;;;4.50;1.43;;;20.00;99.90;;;;;;5107265;28;20510;-75
2021/08/27 13:21:49;;;;;;;1.53;1.40;;;20.30;99.90;;;;;;5092736;28;20456;-74
2021/08/27 13:24:16;;;;;;;2.50;1.83;;;20.10;99.90;;;;;;5107598;28;20459;-78
2021/08/27 13:26:52;;;;;;;2.40;1.30;;;20.00;99.90;;;;;;5097807;28;20438;-80
2021/08/27 13:29:21;;;;;;;1.67;1.20;;;20.70;99.90;;;;;;5096975;28;20448;-77
2021/08/27 13:31:49;;;;;;;2.70;1.10;;;20.70;99.90;;;;;;5110572;28;20825;-80
2021/08/27 13:34:15;;;;;;;1.60;1.20;;;20.90;99.90;;;;;;5104864;28;20787;-80